Impacts TAF Board
For situational awareness. Not to be used for flight planning purposes.
IDs:

KLFK - Lufkin/Angelina Cnty, TX, US

Issued at 1143 UTC 23 Sep 2020
Updated at 1713 UTC 23 Sep 2020
Potential Impact None Slight Moderate High
Time1653Z 23/18Z 23/19Z 23/20Z 23/21Z 23/22Z 23/23Z 24/00Z 24/01Z 24/02Z 24/03Z 24/04Z 24/05Z 24/06Z>>
Type OBS PRVL PRVL PRVL PRVL PRVL PRVL PRVL PRVL PRVL PRVL PRVL PRVL PRVL
VIS 10 4 4 4 5 5 5 >6 >6 >6 >6 >6 >6 >6
CIG 7 7 7 7 7 7 7 15 15 15 15 15 15 15
Cover OVC BKN BKN BKN OVC OVC OVC OVC OVC OVC OVC OVC OVC OVC
FltCat IFR IFR IFR IFR IFR IFR IFR MVFR MVFR MVFR MVFR MVFR MVFR MVFR
WX -- -RA BR -RA BR -RA BR -DZ BR -DZ BR -DZ BR -- -- -- -- -- -- --
WDir 350 20 20 20 360 360 360 350 350 350 350 350 350 350
WSpd 8 7 7 7 11 11 11 4 4 4 4 4 4 4
WGst -- -- -- -- -- -- -- -- -- -- -- -- -- --
R07/25
XWnd 8 6 6 6 11 11 11 4 4 4 4 4 4 4
HWnd 1 4 4 4 3 3 3 0 0 0 0 0 0 0
R15/33
XWnd 1 4 4 4 4 4 4 1 1 1 1 1 1 1
HWnd -8 -5 -5 -5 -10 -10 -10 -4 -4 -4 -4 -4 -4 -4
Raw TAF
KLFK 231143Z 2312/2412 02008KT P6SM -RA OVC004
  TEMPO 2312/2315 2SM -SHRA BR OVC004
  FM231500 02007KT 4SM -RA BR BKN007
  FM232100 36011KT 5SM -DZ BR OVC007
  FM240000 35004KT P6SM OVC015
  FM240900 35005KT P6SM OVC007


Raw METAR
KLFK 231653Z AUTO 35008KT 10SM OVC007 22/19 A2986 RMK AO2 SLP108 T02170194
KLFK 231553Z AUTO 35009KT 10SM OVC006 21/20 A2986 RMK AO2 RAE50 SLP106 P0000 T02110200
KLFK 231453Z AUTO 36007KT 10SM -RA OVC006 21/20 A2985 RMK AO2 SLP104 P0001 60002 T02110200 53010

METAR Board
Radar Display
Forecast Discussion
For situational awareness. Not to be used for flight planning purposes.